Time;durP1;ratioP1;P1;durP2;ratioP2;P2;SDS_P1;SDS_P2;PMS_P1;PMS_P2;Temp;Humidity;BMP_temperature;BMP_pressure;BME280_temperature;BME280_humidity;BME280_pressure;Samples;Min_cycle;Max_cycle;Signal;HPM_P1;HPM_P2
2022/10/01 00:01:17;;;;;;;12.33;6.07;;;8.40;99.90;;;;;;5079159;28;20917;-73
2022/10/01 00:04:03;;;;;;;8.83;7.50;;;8.40;99.90;;;;;;5076279;28;20496;-73
2022/10/01 00:06:50;;;;;;;10.80;6.37;;;8.40;99.90;;;;;;5074456;28;20457;-74
2022/10/01 00:09:35;;;;;;;8.90;6.47;;;8.40;99.90;;;;;;5067314;28;20441;-73
2022/10/01 00:12:20;;;;;;;7.53;6.73;;;8.50;99.90;;;;;;5073879;28;20438;-74
2022/10/01 00:15:08;;;;;;;10.80;6.67;;;8.50;99.90;;;;;;5068571;28;21048;-73
2022/10/01 00:17:54;;;;;;;10.13;6.40;;;8.50;99.90;;;;;;5063785;28;20515;-73
2022/10/01 00:20:42;;;;;;;10.20;6.43;;;8.40;99.90;;;;;;5079661;28;20939;-73
2022/10/01 00:23:29;;;;;;;8.07;6.63;;;8.40;99.90;;;;;;5082920;28;20426;-74
2022/10/01 00:26:17;;;;;;;11.07;6.57;;;8.30;99.90;;;;;;5072468;28;20437;-74
2022/10/01 00:29:04;;;;;;;7.70;6.67;;;8.30;99.90;;;;;;5064109;28;20439;-76
2022/10/01 00:31:49;;;;;;;8.70;6.20;;;8.40;99.90;;;;;;5079210;28;20442;-74
2022/10/01 00:34:35;;;;;;;8.57;6.10;;;8.40;99.90;;;;;;5068050;28;20466;-74
2022/10/01 00:37:21;;;;;;;10.03;6.20;;;8.40;99.90;;;;;;5061442;28;20548;-73
2022/10/01 00:40:09;;;;;;;9.27;6.90;;;8.40;99.90;;;;;;5080093;28;20481;-74
2022/10/01 00:42:54;;;;;;;8.43;6.70;;;8.40;99.90;;;;;;5065356;28;20451;-74
2022/10/01 00:45:41;;;;;;;10.37;6.57;;;8.30;99.90;;;;;;5061856;28;20466;-74
2022/10/01 00:48:29;;;;;;;6.87;6.10;;;8.30;99.90;;;;;;5063831;28;20443;-73
2022/10/01 00:51:15;;;;;;;16.10;7.37;;;8.20;99.90;;;;;;5074945;28;20470;-73
2022/10/01 00:54:08;;;;;;;10.00;6.93;;;8.20;99.90;;;;;;5075468;28;20501;-73
2022/10/01 00:56:58;;;;;;;8.97;6.90;;;8.20;99.90;;;;;;5063013;28;20537;-74
2022/10/01 00:59:44;;;;;;;11.53;6.53;;;8.20;99.90;;;;;;5066777;28;20465;-73
2022/10/01 01:02:30;;;;;;;8.90;7.20;;;8.20;99.90;;;;;;5065212;28;20823;-73
2022/10/01 01:05:16;;;;;;;7.93;6.60;;;8.30;99.90;;;;;;5058687;28;20958;-74
2022/10/01 01:08:03;;;;;;;8.40;6.10;;;8.40;99.90;;;;;;5063183;28;20573;-74
2022/10/01 01:10:56;;;;;;;7.23;6.30;;;8.50;99.90;;;;;;5064999;28;20444;-76
2022/10/01 01:13:52;;;;;;;10.23;7.00;;;8.50;99.90;;;;;;5063012;28;20454;-73
2022/10/01 01:16:43;;;;;;;8.93;6.27;;;8.50;99.90;;;;;;5064264;28;20437;-76
2022/10/01 01:19:46;;;;;;;7.03;6.33;;;8.50;99.90;;;;;;5078913;28;20421;-76
2022/10/01 01:22:36;;;;;;;8.60;6.90;;;8.60;99.90;;;;;;5066382;28;20796;-76
2022/10/01 01:25:32;;;;;;;7.90;6.70;;;8.60;99.90;;;;;;5069664;28;20462;-74
2022/10/01 01:28:24;;;;;;;7.43;6.20;;;8.70;99.90;;;;;;5070804;28;21014;-75
2022/10/01 01:31:13;;;;;;;7.90;6.77;;;8.70;99.90;;;;;;5076198;28;20446;-75
2022/10/01 01:34:03;;;;;;;7.13;5.93;;;8.70;99.90;;;;;;5069927;28;20434;-75
2022/10/01 01:36:55;;;;;;;11.30;5.40;;;8.80;99.90;;;;;;5062091;28;20470;-75
2022/10/01 01:39:45;;;;;;;8.30;6.20;;;8.90;99.90;;;;;;5076105;28;20441;-75
2022/10/01 01:42:35;;;;;;;7.23;5.67;;;8.90;99.90;;;;;;5080813;28;20419;-75
2022/10/01 01:45:27;;;;;;;8.43;5.13;;;9.00;99.90;;;;;;5064960;28;20441;-75
2022/10/01 01:48:14;;;;;;;7.93;5.30;;;9.10;99.90;;;;;;5072013;28;20414;-75
2022/10/01 01:51:08;;;;;;;9.30;5.83;;;9.60;99.90;;;;;;5071920;28;20603;-75
2022/10/01 01:53:54;;;;;;;5.77;4.63;;;9.90;99.90;;;;;;5068608;28;20446;-75
2022/10/01 01:56:40;;;;;;;6.00;4.60;;;10.10;99.90;;;;;;5066644;28;21074;-75
2022/10/01 01:59:27;;;;;;;7.07;4.60;;;10.40;99.90;;;;;;5077636;28;20400;-75
2022/10/01 02:02:18;;;;;;;6.00;4.80;;;10.60;99.90;;;;;;5084354;28;20503;-75
2022/10/01 02:05:07;;;;;;;10.73;5.70;;;10.80;99.90;;;;;;5073664;28;21031;-75
2022/10/01 02:08:11;;;;;;;5.90;4.93;;;11.00;99.90;;;;;;5073016;28;21082;-75
2022/10/01 02:11:13;;;;;;;9.00;6.00;;;11.10;99.90;;;;;;5082469;28;20554;-75
2022/10/01 02:14:05;;;;;;;6.97;5.23;;;11.10;99.90;;;;;;5082755;28;20596;-75
2022/10/01 02:16:58;;;;;;;6.00;4.97;;;11.10;99.90;;;;;;5067070;28;20499;-75
2022/10/01 02:19:51;;;;;;;9.70;5.47;;;11.10;99.90;;;;;;5072986;28;20857;-75
2022/10/01 02:22:43;;;;;;;5.47;4.43;;;11.20;99.90;;;;;;5067675;28;21046;-75
2022/10/01 02:25:34;;;;;;;6.20;5.60;;;11.20;99.90;;;;;;5060100;28;20467;-75
2022/10/01 02:28:23;;;;;;;8.03;5.43;;;11.20;99.90;;;;;;5071941;28;20438;-75
2022/10/01 02:31:11;;;;;;;8.80;5.13;;;11.20;99.90;;;;;;5072358;28;20451;-75
2022/10/01 02:33:59;;;;;;;7.03;5.60;;;11.20;99.90;;;;;;5078354;28;20467;-75
2022/10/01 02:36:48;;;;;;;7.53;5.73;;;11.20;99.90;;;;;;5066492;28;20497;-75
2022/10/01 02:39:35;;;;;;;6.80;5.63;;;11.20;99.90;;;;;;5067867;28;20442;-75
2022/10/01 02:42:23;;;;;;;6.50;5.03;;;11.20;99.90;;;;;;5067384;28;20470;-75
2022/10/01 02:45:11;;;;;;;5.80;4.23;;;11.20;99.90;;;;;;5064107;28;20462;-75
2022/10/01 02:48:02;;;;;;;7.07;5.23;;;11.30;99.90;;;;;;5068999;28;20466;-74
2022/10/01 02:50:51;;;;;;;6.47;4.97;;;11.20;99.90;;;;;;5076100;28;20445;-75
2022/10/01 02:53:44;;;;;;;8.90;5.73;;;11.20;99.90;;;;;;5064887;28;20463;-75
2022/10/01 02:59:43;;;;;;;6.97;4.50;;;11.20;99.90;;;;;;5006353;28;20881;-75
2022/10/01 03:02:31;;;;;;;6.50;4.40;;;11.20;99.90;;;;;;5083189;28;20426;-75
2022/10/01 03:05:19;;;;;;;6.67;4.70;;;11.20;99.90;;;;;;5070039;28;20609;-75
2022/10/01 03:08:04;;;;;;;6.00;4.10;;;11.20;99.90;;;;;;5084770;28;20418;-75
2022/10/01 03:10:51;;;;;;;5.43;4.20;;;11.20;99.90;;;;;;5078311;28;20431;-75
2022/10/01 03:13:36;;;;;;;5.40;4.40;;;11.30;99.90;;;;;;5082269;28;20627;-75
2022/10/01 03:16:22;;;;;;;5.80;4.30;;;11.30;99.90;;;;;;5072037;28;20461;-75
2022/10/01 03:19:08;;;;;;;5.67;4.27;;;11.30;99.90;;;;;;5085850;28;20480;-75
2022/10/01 03:21:55;;;;;;;5.73;3.60;;;11.40;99.90;;;;;;5086550;28;20433;-75
2022/10/01 03:24:40;;;;;;;4.43;3.20;;;11.40;99.90;;;;;;5067699;28;20462;-75
2022/10/01 03:27:27;;;;;;;3.33;2.90;;;11.50;99.90;;;;;;5069145;28;20798;-75
2022/10/01 03:30:13;;;;;;;4.27;3.20;;;11.50;99.90;;;;;;5065530;28;20440;-75
2022/10/01 03:32:59;;;;;;;4.43;3.17;;;11.50;99.90;;;;;;5064739;28;20434;-75
2022/10/01 03:35:45;;;;;;;4.40;2.97;;;11.50;99.90;;;;;;5060529;28;20462;-75
2022/10/01 03:38:31;;;;;;;3.90;2.80;;;11.50;99.90;;;;;;5069593;28;20474;-75
2022/10/01 03:41:17;;;;;;;4.80;2.60;;;11.60;99.90;;;;;;5062706;28;20577;-75
2022/10/01 03:44:04;;;;;;;5.00;2.93;;;11.60;99.90;;;;;;5065620;28;20417;-75
2022/10/01 03:46:50;;;;;;;3.10;2.37;;;11.60;99.90;;;;;;5069328;28;20447;-75
2022/10/01 03:49:36;;;;;;;3.60;2.40;;;11.70;99.90;;;;;;5063947;28;20564;-75
2022/10/01 03:52:22;;;;;;;3.00;2.47;;;11.70;99.90;;;;;;5066229;28;20454;-75
2022/10/01 03:55:08;;;;;;;3.67;2.90;;;11.70;99.90;;;;;;5063614;28;20437;-75
2022/10/01 03:57:54;;;;;;;3.53;2.13;;;11.80;99.90;;;;;;5069807;28;20460;-75
2022/10/01 04:00:41;;;;;;;3.70;2.40;;;11.90;99.90;;;;;;5067321;28;20458;-75
2022/10/01 04:03:27;;;;;;;4.00;2.60;;;11.90;99.90;;;;;;5065541;28;20447;-75
2022/10/01 04:06:13;;;;;;;3.93;2.70;;;11.90;99.90;;;;;;5064142;28;20469;-75
2022/10/01 04:08:59;;;;;;;4.00;1.87;;;12.00;99.90;;;;;;5070083;28;20434;-74
2022/10/01 04:11:44;;;;;;;7.30;2.27;;;12.00;99.90;;;;;;5070999;28;20434;-75
2022/10/01 04:14:30;;;;;;;3.40;2.37;;;12.00;99.90;;;;;;5059605;28;20599;-75
2022/10/01 04:17:17;;;;;;;4.90;2.90;;;11.90;99.90;;;;;;5072361;28;20416;-75
2022/10/01 04:20:03;;;;;;;4.50;3.37;;;11.90;99.90;;;;;;5074249;28;20408;-75
2022/10/01 04:22:49;;;;;;;3.77;2.60;;;11.90;99.90;;;;;;5065323;28;20443;-75
2022/10/01 04:25:35;;;;;;;6.10;3.03;;;11.90;99.90;;;;;;5060062;28;20604;-75
2022/10/01 04:28:20;;;;;;;5.33;2.63;;;11.80;99.90;;;;;;5062398;28;20484;-75
2022/10/01 04:31:24;;;;;;;3.80;2.63;;;11.80;99.90;;;;;;5063903;28;20459;-75
2022/10/01 04:34:11;;;;;;;4.27;2.87;;;11.80;99.90;;;;;;5061169;28;20421;-75
2022/10/01 04:36:57;;;;;;;4.00;2.80;;;11.70;99.90;;;;;;5068150;28;20813;-75
2022/10/01 04:39:42;;;;;;;4.73;2.90;;;11.60;99.90;;;;;;5064308;28;20513;-75
2022/10/01 04:42:28;;;;;;;4.73;3.47;;;11.60;99.90;;;;;;5069912;28;20435;-75
2022/10/01 04:45:14;;;;;;;3.60;3.03;;;11.50;99.90;;;;;;5063535;28;20795;-76
2022/10/01 04:48:00;;;;;;;3.27;2.97;;;11.40;99.90;;;;;;5081563;28;20898;-75
2022/10/01 04:50:48;;;;;;;4.90;3.10;;;11.40;99.90;;;;;;5063474;28;21413;-75
2022/10/01 04:53:33;;;;;;;5.10;3.00;;;11.40;99.90;;;;;;5067762;28;20542;-75
2022/10/01 04:56:19;;;;;;;4.83;3.40;;;11.20;99.90;;;;;;5070678;28;20795;-75
2022/10/01 04:59:04;;;;;;;3.50;3.00;;;11.30;99.90;;;;;;5071617;28;20451;-75
2022/10/01 05:01:50;;;;;;;8.03;3.77;;;11.20;99.90;;;;;;5086431;28;20495;-75
2022/10/01 05:04:36;;;;;;;4.30;3.40;;;11.20;99.90;;;;;;5064647;28;20687;-75
2022/10/01 05:07:23;;;;;;;4.83;3.53;;;11.10;99.90;;;;;;5075784;28;20425;-75
2022/10/01 05:10:12;;;;;;;6.90;3.27;;;11.00;99.90;;;;;;5085770;28;20430;-75
2022/10/01 05:13:00;;;;;;;9.23;4.03;;;11.10;99.90;;;;;;5080669;28;20421;-75
2022/10/01 05:15:48;;;;;;;4.00;3.33;;;11.00;99.90;;;;;;5077942;28;20802;-75
2022/10/01 05:18:33;;;;;;;3.83;2.90;;;11.10;99.90;;;;;;5076133;28;20473;-75
2022/10/01 05:21:19;;;;;;;4.77;3.27;;;11.10;99.90;;;;;;5077838;28;20771;-75
2022/10/01 05:24:06;;;;;;;4.50;3.30;;;11.10;99.90;;;;;;5075153;28;20844;-75
2022/10/01 05:26:53;;;;;;;4.20;3.07;;;11.10;99.90;;;;;;5080152;28;20447;-76
2022/10/01 05:29:40;;;;;;;5.33;3.23;;;11.10;99.90;;;;;;5074671;28;20441;-75
2022/10/01 05:32:25;;;;;;;4.00;3.50;;;11.10;99.90;;;;;;5064236;28;20951;-75
2022/10/01 05:35:11;;;;;;;5.90;3.57;;;11.20;99.90;;;;;;5068446;28;20490;-75
2022/10/01 05:37:59;;;;;;;4.80;3.37;;;11.10;99.90;;;;;;5078311;28;21048;-75
2022/10/01 05:40:46;;;;;;;4.30;3.00;;;11.10;99.90;;;;;;5074589;28;20428;-75
2022/10/01 05:43:32;;;;;;;4.50;3.70;;;11.20;99.90;;;;;;5067409;28;20616;-75
2022/10/01 05:46:18;;;;;;;4.07;3.47;;;11.20;99.90;;;;;;5068158;28;20942;-75
2022/10/01 05:49:05;;;;;;;5.00;3.70;;;11.30;99.90;;;;;;5069335;28;20434;-75
2022/10/01 05:51:51;;;;;;;5.30;3.53;;;11.20;99.90;;;;;;5068449;28;20993;-76
2022/10/01 05:54:37;;;;;;;4.07;3.67;;;11.20;99.90;;;;;;5062349;28;20466;-76
2022/10/01 05:57:24;;;;;;;3.87;3.30;;;11.20;99.90;;;;;;5069728;28;20418;-75
2022/10/01 06:00:13;;;;;;;9.27;3.60;;;11.10;99.90;;;;;;5068399;28;20425;-75
2022/10/01 06:03:01;;;;;;;5.47;3.70;;;11.10;99.90;;;;;;5076024;28;20813;-75
2022/10/01 06:05:46;;;;;;;7.50;4.00;;;11.10;99.90;;;;;;5072762;28;20482;-75
2022/10/01 06:08:34;;;;;;;5.73;4.10;;;11.10;99.90;;;;;;5085662;28;20527;-75
2022/10/01 06:11:21;;;;;;;4.67;3.30;;;11.10;99.90;;;;;;5079239;28;20449;-75
2022/10/01 06:14:08;;;;;;;9.70;4.53;;;11.10;99.90;;;;;;5067583;28;20486;-75
2022/10/01 06:16:54;;;;;;;12.00;4.40;;;11.00;99.90;;;;;;5088352;28;20404;-75
2022/10/01 06:19:40;;;;;;;7.73;3.57;;;11.10;99.90;;;;;;5075584;28;20470;-76
2022/10/01 06:22:25;;;;;;;5.67;3.80;;;11.10;99.90;;;;;;5078913;28;20401;-76
2022/10/01 06:25:14;;;;;;;9.70;5.00;;;11.20;99.90;;;;;;5085169;28;20446;-75
2022/10/01 06:28:00;;;;;;;6.90;4.90;;;11.10;99.90;;;;;;5080086;28;20405;-75
2022/10/01 06:30:48;;;;;;;10.90;8.70;;;11.10;99.90;;;;;;5083042;28;20553;-75
2022/10/01 06:33:34;;;;;;;5.57;3.63;;;11.00;99.90;;;;;;5071628;28;20444;-75
2022/10/01 06:36:19;;;;;;;13.63;7.53;;;11.10;99.90;;;;;;5081035;28;20446;-75
2022/10/01 06:39:06;;;;;;;5.07;3.33;;;11.20;99.90;;;;;;5079714;28;20477;-76
2022/10/01 06:41:52;;;;;;;7.73;5.50;;;11.10;99.90;;;;;;5073409;28;20964;-75
2022/10/01 06:44:38;;;;;;;11.50;6.47;;;11.10;99.90;;;;;;5064313;28;20995;-76
2022/10/01 06:47:25;;;;;;;7.73;5.30;;;11.00;99.90;;;;;;5067665;28;21006;-76
2022/10/01 06:50:11;;;;;;;9.03;5.10;;;11.10;99.90;;;;;;5078705;28;20439;-76
2022/10/01 06:52:57;;;;;;;20.73;8.33;;;11.20;99.90;;;;;;5062521;28;20442;-76
2022/10/01 06:55:43;;;;;;;9.30;4.93;;;11.00;99.90;;;;;;5071248;28;20473;-75
2022/10/01 06:58:29;;;;;;;6.27;4.27;;;10.90;99.90;;;;;;5063866;28;20935;-75
2022/10/01 07:01:19;;;;;;;6.47;3.70;;;10.90;99.90;;;;;;5069458;28;20495;-76
2022/10/01 07:04:06;;;;;;;42.53;16.70;;;10.90;99.90;;;;;;5067329;28;20589;-76
2022/10/01 07:06:52;;;;;;;10.93;4.80;;;10.90;99.90;;;;;;5068871;28;20442;-75
2022/10/01 07:09:37;;;;;;;13.83;5.33;;;10.90;99.90;;;;;;5068142;28;20428;-76
2022/10/01 07:12:24;;;;;;;8.07;4.53;;;10.90;99.90;;;;;;5059325;28;20451;-76
2022/10/01 07:15:10;;;;;;;14.60;5.30;;;10.90;99.90;;;;;;5066444;28;20553;-76
2022/10/01 07:17:55;;;;;;;9.80;4.83;;;10.90;99.90;;;;;;5069979;28;20431;-76
2022/10/01 07:20:42;;;;;;;8.80;4.63;;;10.90;99.90;;;;;;5068203;28;20417;-76
2022/10/01 07:23:28;;;;;;;4.77;3.70;;;10.90;99.90;;;;;;5062547;28;20455;-75
2022/10/01 07:26:14;;;;;;;6.40;4.23;;;10.90;99.90;;;;;;5069544;28;20460;-76
2022/10/01 07:29:00;;;;;;;43.13;18.43;;;11.00;99.90;;;;;;5066783;28;20516;-76
2022/10/01 07:31:45;;;;;;;8.60;6.57;;;11.00;99.90;;;;;;5065970;28;20816;-75
2022/10/01 07:34:31;;;;;;;6.97;4.40;;;10.90;99.90;;;;;;5065674;28;20584;-75
2022/10/01 07:37:18;;;;;;;9.20;4.17;;;10.90;99.90;;;;;;5069499;28;20416;-76
2022/10/01 07:40:04;;;;;;;3.90;3.10;;;10.90;99.90;;;;;;5068644;28;20982;-75
2022/10/01 07:42:54;;;;;;;7.00;4.03;;;10.90;99.90;;;;;;5062379;28;20569;-76
2022/10/01 07:45:40;;;;;;;11.70;4.83;;;11.00;99.90;;;;;;5071665;28;20478;-76
2022/10/01 07:48:26;;;;;;;9.60;5.43;;;11.00;99.90;;;;;;5064343;28;20455;-75
2022/10/01 07:51:12;;;;;;;6.73;4.20;;;11.00;99.90;;;;;;5064771;28;20612;-76
2022/10/01 07:53:58;;;;;;;16.03;7.43;;;11.00;99.90;;;;;;5062554;28;21030;-76
2022/10/01 07:56:44;;;;;;;5.87;4.40;;;10.90;99.90;;;;;;5068170;28;20417;-76
2022/10/01 07:59:30;;;;;;;16.50;8.30;;;10.90;99.90;;;;;;5066394;28;20441;-75
2022/10/01 08:02:17;;;;;;;4.20;3.70;;;10.90;99.90;;;;;;5064184;28;20410;-75
2022/10/01 08:05:18;;;;;;;4.50;2.80;;;10.90;99.90;;;;;;5065432;28;20819;-75
2022/10/01 08:08:05;;;;;;;5.70;3.63;;;10.90;99.90;;;;;;5066419;28;20520;-76
2022/10/01 08:10:52;;;;;;;6.43;4.10;;;10.90;99.90;;;;;;5078104;28;20388;-75
2022/10/01 08:13:38;;;;;;;5.90;3.47;;;11.00;99.90;;;;;;5060129;28;20424;-76
2022/10/01 08:16:27;;;;;;;4.60;3.60;;;11.00;99.90;;;;;;5078548;28;20446;-76
2022/10/01 08:19:14;;;;;;;8.70;4.50;;;11.00;99.90;;;;;;5082022;28;20481;-75
2022/10/01 08:21:59;;;;;;;7.53;5.27;;;11.10;99.90;;;;;;5077222;28;20448;-75
2022/10/01 08:24:45;;;;;;;13.30;11.13;;;11.10;99.90;;;;;;5071424;28;20953;-76
2022/10/01 08:27:32;;;;;;;6.40;4.57;;;11.10;99.90;;;;;;5082098;28;20433;-76
2022/10/01 08:30:18;;;;;;;13.23;7.57;;;11.10;99.90;;;;;;5079917;28;20969;-76
2022/10/01 08:33:04;;;;;;;10.10;5.50;;;11.20;99.90;;;;;;5060881;28;20936;-76
2022/10/01 08:35:49;;;;;;;4.53;3.13;;;11.20;99.90;;;;;;5084214;28;20423;-75
2022/10/01 08:38:36;;;;;;;4.77;3.80;;;11.20;99.90;;;;;;5082218;28;20533;-76
2022/10/01 08:41:33;;;;;;;3.30;2.40;;;11.10;99.90;;;;;;5066053;28;20445;-75
2022/10/01 08:44:26;;;;;;;8.40;6.37;;;11.20;99.90;;;;;;5064223;28;21101;-75
2022/10/01 08:47:17;;;;;;;33.57;26.90;;;11.20;99.90;;;;;;5069540;28;20461;-74
2022/10/01 08:50:13;;;;;;;11.60;9.53;;;11.20;99.90;;;;;;5071970;28;21069;-76
2022/10/01 08:53:01;;;;;;;56.33;46.27;;;11.20;99.90;;;;;;5069064;28;20425;-76
2022/10/01 08:55:47;;;;;;;4.10;3.20;;;11.10;99.90;;;;;;5073687;28;20466;-76
2022/10/01 08:58:39;;;;;;;35.37;29.23;;;11.20;99.90;;;;;;5072256;28;20455;-76
2022/10/01 09:01:28;;;;;;;9.00;6.50;;;11.20;99.90;;;;;;5069891;28;20439;-76
2022/10/01 09:04:14;;;;;;;22.23;18.43;;;11.10;99.90;;;;;;5068947;28;20950;-76
2022/10/01 09:07:17;;;;;;;31.83;25.27;;;11.20;99.90;;;;;;5070710;28;20517;-76
2022/10/01 09:10:17;;;;;;;8.00;6.67;;;11.30;99.90;;;;;;5067544;28;20438;-76
2022/10/01 09:13:21;;;;;;;8.43;7.60;;;11.30;99.90;;;;;;5067149;28;20852;-76
2022/10/01 09:16:14;;;;;;;8.10;4.63;;;11.30;99.90;;;;;;5070692;28;22349;-76
2022/10/01 09:19:15;;;;;;;19.80;15.17;;;11.30;99.90;;;;;;5073379;28;20622;-76
2022/10/01 09:22:07;;;;;;;3.40;2.87;;;11.30;99.90;;;;;;5074049;28;21050;-75
2022/10/01 09:25:00;;;;;;;3.87;2.40;;;11.20;99.90;;;;;;5066534;28;20436;-76
2022/10/01 09:27:47;;;;;;;6.23;4.80;;;11.20;99.90;;;;;;5067665;28;20905;-76
2022/10/01 09:30:34;;;;;;;3.60;2.80;;;11.30;99.90;;;;;;5072578;28;20687;-76
2022/10/01 09:33:20;;;;;;;3.40;2.27;;;11.20;99.90;;;;;;5074697;28;20416;-75
2022/10/01 09:36:16;;;;;;;4.00;3.00;;;11.30;99.90;;;;;;5075645;28;20463;-76
2022/10/01 09:39:13;;;;;;;4.73;2.77;;;11.20;99.90;;;;;;5071471;28;20417;-76
2022/10/01 09:41:59;;;;;;;3.20;2.70;;;11.20;99.90;;;;;;5067083;28;20443;-77
2022/10/01 09:44:46;;;;;;;4.80;2.80;;;11.30;99.90;;;;;;5068569;28;20462;-76
2022/10/01 09:47:33;;;;;;;3.30;2.43;;;11.20;99.90;;;;;;5070217;28;20658;-75
2022/10/01 09:50:25;;;;;;;4.93;2.70;;;11.30;99.90;;;;;;5077363;28;20536;-77
2022/10/01 09:53:17;;;;;;;3.13;2.40;;;11.30;99.90;;;;;;5067379;28;20809;-76
2022/10/01 09:56:11;;;;;;;3.43;2.30;;;11.20;99.90;;;;;;5078180;28;20438;-76
2022/10/01 09:59:04;;;;;;;6.17;2.53;;;11.30;99.90;;;;;;5069997;28;20404;-76
2022/10/01 10:01:53;;;;;;;3.37;2.90;;;11.20;99.90;;;;;;5068000;28;20422;-74
2022/10/01 10:04:38;;;;;;;2.67;2.10;;;11.20;99.90;;;;;;5067182;28;20490;-73
2022/10/01 10:07:24;;;;;;;5.43;3.00;;;11.30;99.90;;;;;;5059968;28;20478;-74
2022/10/01 10:10:19;;;;;;;4.57;2.60;;;11.30;99.90;;;;;;5081572;28;20450;-74
2022/10/01 10:13:17;;;;;;;5.40;2.60;;;11.30;99.90;;;;;;5064452;28;20882;-74
2022/10/01 10:16:24;;;;;;;5.67;3.67;;;11.30;99.90;;;;;;5082405;28;20589;-74
2022/10/01 10:19:18;;;;;;;4.17;2.40;;;11.30;99.90;;;;;;5080684;28;20722;-73
2022/10/01 10:22:11;;;;;;;4.87;2.90;;;11.30;99.90;;;;;;5068851;28;20575;-74
2022/10/01 10:24:57;;;;;;;4.03;3.10;;;11.30;99.90;;;;;;5085644;28;20458;-74
2022/10/01 10:27:54;;;;;;;3.40;2.80;;;11.40;99.90;;;;;;5073970;28;20477;-74
2022/10/01 10:30:42;;;;;;;7.33;2.83;;;11.40;99.90;;;;;;5072510;28;20518;-73
2022/10/01 10:33:29;;;;;;;5.37;3.47;;;11.40;99.90;;;;;;5063698;28;20423;-73
2022/10/01 10:36:15;;;;;;;3.00;2.40;;;11.40;99.90;;;;;;5077035;28;20941;-73
2022/10/01 10:39:04;;;;;;;3.27;2.43;;;11.50;99.90;;;;;;5078804;28;20426;-74
2022/10/01 10:41:51;;;;;;;5.00;2.80;;;11.50;99.90;;;;;;5084773;28;20409;-73
2022/10/01 10:44:39;;;;;;;3.50;2.03;;;11.50;99.90;;;;;;5077677;28;20424;-74
2022/10/01 10:47:27;;;;;;;8.57;2.37;;;11.50;99.90;;;;;;5061691;28;20437;-73
2022/10/01 10:50:28;;;;;;;2.60;2.33;;;11.60;99.90;;;;;;5065270;28;20442;-74
2022/10/01 10:53:21;;;;;;;4.40;3.10;;;11.60;99.90;;;;;;5063816;28;20984;-73
2022/10/01 10:56:14;;;;;;;3.40;2.50;;;11.60;99.90;;;;;;5065205;28;20466;-73
2022/10/01 10:59:08;;;;;;;4.30;2.80;;;11.50;99.90;;;;;;5073003;28;20938;-74
2022/10/01 11:01:55;;;;;;;5.07;2.70;;;11.50;99.90;;;;;;5069611;28;20417;-73
2022/10/01 11:04:42;;;;;;;10.27;3.50;;;11.60;99.90;;;;;;5065366;28;20482;-73
2022/10/01 11:07:29;;;;;;;3.33;2.40;;;11.70;99.90;;;;;;5073866;28;20765;-74
2022/10/01 11:10:28;;;;;;;7.80;5.03;;;11.80;99.90;;;;;;5065772;28;20532;-74
2022/10/01 11:13:31;;;;;;;4.77;2.67;;;11.80;99.90;;;;;;5065056;28;20448;-73
2022/10/01 11:16:34;;;;;;;4.17;2.63;;;11.80;99.90;;;;;;5066373;28;20433;-73
2022/10/01 11:19:43;;;;;;;4.30;2.10;;;11.90;99.90;;;;;;5062462;28;20438;-73
2022/10/01 11:22:42;;;;;;;3.47;2.27;;;11.90;99.90;;;;;;5067504;28;20420;-74
2022/10/01 11:25:40;;;;;;;5.53;3.80;;;11.90;99.90;;;;;;5063344;28;20470;-74
2022/10/01 11:28:36;;;;;;;4.27;2.73;;;11.90;99.90;;;;;;5057487;28;20424;-73
2022/10/01 11:31:31;;;;;;;3.10;1.97;;;11.90;99.90;;;;;;5075311;28;20816;-73
2022/10/01 11:34:40;;;;;;;4.13;1.70;;;11.90;99.90;;;;;;5056044;28;20491;-73
2022/10/01 11:37:42;;;;;;;3.20;2.10;;;12.00;99.90;;;;;;5065635;28;20454;-74
2022/10/01 11:40:33;;;;;;;2.53;2.00;;;12.00;99.90;;;;;;5061381;28;21084;-74
2022/10/01 11:43:23;;;;;;;3.10;2.17;;;12.00;99.90;;;;;;5068715;28;20429;-73
2022/10/01 11:46:13;;;;;;;2.40;1.87;;;12.00;99.90;;;;;;5069463;28;20439;-73
2022/10/01 11:49:06;;;;;;;3.00;2.10;;;12.10;99.90;;;;;;5077990;28;20469;-73
2022/10/01 11:52:00;;;;;;;2.50;1.80;;;12.10;99.90;;;;;;5072996;28;20414;-73
2022/10/01 11:58:49;;;;;;;2.77;1.80;;;12.10;99.90;;;;;;5069764;28;20471;-73
2022/10/01 12:01:24;;;;;;;2.53;1.60;;;12.20;99.90;;;;;;5068259;28;20507;-73
2022/10/01 12:04:18;;;;;;;3.03;1.50;;;12.30;99.90;;;;;;5065526;28;20446;-73
2022/10/01 12:07:12;;;;;;;3.07;1.70;;;12.30;99.90;;;;;;5071266;28;20409;-73
2022/10/01 12:10:07;;;;;;;5.03;1.60;;;12.40;99.90;;;;;;5070334;28;20497;-73
2022/10/01 12:12:57;;;;;;;2.10;1.70;;;12.40;99.90;;;;;;5073594;28;20419;-73
2022/10/01 12:15:48;;;;;;;2.50;1.60;;;12.50;99.90;;;;;;5068600;28;20523;-73
2022/10/01 12:18:45;;;;;;;3.27;1.80;;;12.40;99.90;;;;;;5083053;22;20468;-77
2022/10/01 12:21:36;;;;;;;6.73;1.40;;;12.40;99.90;;;;;;5080714;28;20595;-77
2022/10/01 12:24:28;;;;;;;1.90;1.40;;;12.40;99.90;;;;;;5058541;28;20420;-77
2022/10/01 12:27:34;;;;;;;1.47;1.13;;;12.30;99.90;;;;;;5070662;28;20440;-77
2022/10/01 12:30:21;;;;;;;2.10;1.23;;;12.40;99.90;;;;;;5053398;28;20509;-77
2022/10/01 12:33:37;;;;;;;4.63;1.57;;;12.40;99.90;;;;;;5048575;28;20477;-77
2022/10/01 12:36:33;;;;;;;2.40;1.70;;;12.40;99.90;;;;;;5045773;28;20548;-77
2022/10/01 12:39:33;;;;;;;2.00;1.40;;;12.50;99.90;;;;;;5039455;28;20547;-77
2022/10/01 12:42:53;;;;;;;2.70;1.80;;;12.50;99.90;;;;;;5041423;28;20814;-77
2022/10/01 12:45:47;;;;;;;4.17;3.10;;;12.50;99.90;;;;;;5036237;28;20587;-77
2022/10/01 12:48:40;;;;;;;2.67;1.87;;;12.50;99.90;;;;;;5045853;28;20841;-77
2022/10/01 12:51:41;;;;;;;2.27;1.47;;;12.50;99.90;;;;;;5055405;28;20514;-77
2022/10/01 12:54:45;;;;;;;2.20;1.50;;;12.50;99.90;;;;;;5046856;28;20484;-77
2022/10/01 12:57:43;;;;;;;8.40;2.10;;;12.60;99.90;;;;;;5048574;28;21018;-77
2022/10/01 13:00:39;;;;;;;3.70;2.10;;;12.60;99.90;;;;;;5043712;28;20467;-77
2022/10/01 13:03:36;;;;;;;3.10;1.50;;;12.60;99.90;;;;;;5044086;28;20516;-77
2022/10/01 13:06:31;;;;;;;8.43;2.10;;;12.60;99.90;;;;;;5052214;28;20418;-77
2022/10/01 13:09:24;;;;;;;5.10;1.73;;;12.60;99.90;;;;;;5054306;28;20558;-77
2022/10/01 13:12:24;;;;;;;3.10;1.97;;;12.60;99.90;;;;;;5056871;28;20402;-77
2022/10/01 13:15:21;;;;;;;5.67;2.00;;;12.60;99.90;;;;;;5054086;28;20513;-77
2022/10/01 13:18:17;;;;;;;3.90;2.00;;;12.70;99.90;;;;;;5053144;28;20544;-78
2022/10/01 13:21:10;;;;;;;3.10;2.00;;;12.80;99.90;;;;;;5051557;28;20854;-77
2022/10/01 13:24:01;;;;;;;2.97;2.27;;;12.80;99.90;;;;;;5051556;28;20520;-78
2022/10/01 13:26:54;;;;;;;2.60;2.00;;;12.80;99.90;;;;;;5053768;28;20473;-77
2022/10/01 13:29:52;;;;;;;3.90;2.10;;;12.80;99.90;;;;;;5053908;28;20434;-77
2022/10/01 13:32:50;;;;;;;2.63;2.03;;;12.90;99.90;;;;;;5044748;28;20598;-77
2022/10/01 13:35:40;;;;;;;3.23;1.73;;;13.00;99.90;;;;;;5051959;28;20776;-77
2022/10/01 13:38:38;;;;;;;2.47;1.90;;;13.00;99.90;;;;;;5051738;28;21072;-77
2022/10/01 13:41:26;;;;;;;2.47;1.57;;;13.10;99.90;;;;;;5047774;28;20480;-78
2022/10/01 13:44:23;;;;;;;2.50;1.73;;;13.20;99.90;;;;;;5049982;28;20778;-78
2022/10/01 13:47:12;;;;;;;2.53;1.40;;;13.20;99.90;;;;;;5061437;28;20407;-77
2022/10/01 13:50:02;;;;;;;4.37;1.60;;;13.20;99.90;;;;;;5054216;28;20427;-77
2022/10/01 13:52:49;;;;;;;3.00;1.73;;;13.30;99.90;;;;;;5050577;28;20451;-77
2022/10/01 13:55:42;;;;;;;6.07;1.60;;;13.30;99.90;;;;;;5051444;28;20411;-77
2022/10/01 13:58:38;;;;;;;4.10;1.60;;;13.40;99.90;;;;;;5046895;28;20978;-77
2022/10/01 14:01:30;;;;;;;9.10;1.80;;;13.50;99.90;;;;;;5051572;28;20637;-77
2022/10/01 14:04:22;;;;;;;2.73;1.40;;;13.40;99.90;;;;;;5050211;28;20979;-77
2022/10/01 14:07:16;;;;;;;3.53;1.60;;;13.50;99.90;;;;;;5054917;28;20820;-78
2022/10/01 14:10:03;;;;;;;1.90;1.43;;;13.50;99.90;;;;;;5051835;28;20431;-77
2022/10/01 14:16:01;;;;;;;4.87;1.83;;;13.60;99.90;;;;;;5052407;28;20536;-78
2022/10/01 14:18:49;;;;;;;11.07;1.97;;;13.60;99.90;;;;;;5052222;28;20557;-77
2022/10/01 14:21:49;;;;;;;2.83;1.70;;;13.70;99.90;;;;;;5048404;28;20472;-79
2022/10/01 14:24:46;;;;;;;3.90;2.07;;;13.70;99.90;;;;;;5046118;28;20544;-79
2022/10/01 14:27:40;;;;;;;3.07;1.50;;;13.70;99.90;;;;;;5045582;28;20445;-79
2022/10/01 14:30:35;;;;;;;2.57;1.80;;;13.70;99.90;;;;;;5039538;28;20635;-80
2022/10/01 14:33:50;;;;;;;6.53;2.67;;;13.60;99.90;;;;;;5038858;28;20426;-79
2022/10/01 14:36:41;;;;;;;6.50;1.50;;;13.70;99.90;;;;;;5040452;28;20791;-78
2022/10/01 14:39:29;;;;;;;2.07;1.40;;;13.70;99.90;;;;;;5048416;28;20482;-79
2022/10/01 14:42:16;;;;;;;2.73;1.30;;;13.60;99.90;;;;;;5055346;28;20541;-77
2022/10/01 14:45:15;;;;;;;2.20;1.50;;;13.60;99.90;;;;;;5063400;28;20406;-78
2022/10/01 14:48:02;;;;;;;3.20;1.67;;;13.60;99.90;;;;;;5049855;28;20481;-80
2022/10/01 14:50:50;;;;;;;3.33;1.80;;;13.60;99.90;;;;;;5043939;28;20430;-79
2022/10/01 14:53:38;;;;;;;6.30;1.50;;;13.70;99.90;;;;;;5044157;28;20458;-79